Pagrindinis puslapis
METAR-TAF:

METAR-TAF

Oro uostai :

Gojanija, Gojasas, Brazilija

platuma: 16-38S, ilguma: 049-13W, Aukštis: 747 m

Dabartinis oras

Ataskaita buvo paskelbta 58 minutes, ne 22:00 UTC
Vėjas 9 kt iš Rytų
Temperatūra 31°C
Drėgmė 16%
Slėgis 1015 hPa
Matomumas 10 km arba daugiau
nėra debesų žemiau 1500 m ir nėra kamuolinių lietaus debesų

METAR: SBGO 162200Z 09009KT CAVOK 31/02 Q1015

Laikas: 19:58 (22:58 UTC)

Prognozė

Ataskaita buvo paskelbta 6 valandos ir 58 minutes, ne 16:00 UTC
Prognozė galioja nuo 16 metu 18 UTC su 17 metu 18 UTC
Vėjas 15 kt iš Rytų/Pietryčių
Matomumas 10 km arba daugiau
nėra debesų žemiau 1500 m ir nėra kamuolinių lietaus debesų
Tapsmas
nuo 17 metu 01 UTC su 17 metu 03 UTC
Vėjas 8 kt iš Rytų/Pietryčių
Tapsmas
nuo 17 metu 06 UTC su 17 metu 08 UTC
Vėjas 5 kt iš Pietų
Tapsmas
nuo 17 metu 13 UTC su 17 metu 15 UTC
Vėjas 15 kt iš Rytų/Šiaurės Rytų

TAF: SBGO 161600Z 1618/1718 12015KT CAVOK TX35/1618Z TN21/1708Z BECMG 1701/1703 12008KT BECMG 1706/1708 19005KT BECMG 1713/1715 06015KT RMK PAY

Orai ataskaitas ir orų prognozės (METAR, TAF).

turimą stotys yra geltonos ir raudonos taškus žemėlapyje.

Perkelti pele per norėdami pamatyti stoties vardą.

Tada spustelėkite, norėdami matyti oro stebėjimo ir prognozės.

Norėdami pakeisti žemėlapį: spustelėkite ant žalios mygtukų su juodo kryžiaus žemyn,; žalią mygtuką su brūkšneliu, jei norite nutolinti; arba žalių rodyklių gretimoms žemėlapius.


METAR-TAF: